Time;durP1;ratioP1;P1;durP2;ratioP2;P2;SDS_P1;SDS_P2;PMS_P1;PMS_P2;Temp;Humidity;BMP_temperature;BMP_pressure;BME280_temperature;BME280_humidity;BME280_pressure;Samples;Min_cycle;Max_cycle;Signal;HPM_P1;HPM_P2
2022/09/11 00:01:32;;;;;;;;;;;;;;;16.52;52.52;101211.25;5030760;28;20125;-84
2022/09/11 00:04:01;;;;;;;;;;;;;;;16.51;52.09;101211.41;5032143;28;19925;-84
2022/09/11 00:06:29;;;;;;;;;;;;;;;16.49;52.24;101211.63;5035727;28;19921;-85
2022/09/11 00:08:59;;;;;;;;;;;;;;;16.49;52.06;101221.78;5036532;28;20486;-84
2022/09/11 00:11:29;;;;;;;;;;;;;;;16.48;52.51;101222.81;5050662;28;20327;-85
2022/09/11 00:13:58;;;;;;;;;;;;;;;16.47;52.09;101218.31;5028640;28;19964;-85
2022/09/11 00:16:27;;;;;;;;;;;;;;;16.46;52.20;101216.59;5044179;28;19921;-84
2022/09/11 00:18:56;;;;;;;;;;;;;;;16.45;52.13;101231.44;5016410;28;19922;-82
2022/09/11 00:21:24;;;;;;;;;;;;;;;16.44;52.23;101221.41;5039979;28;19948;-81
2022/09/11 00:23:52;;;;;;;;;;;;;;;16.43;52.16;101230.72;5031459;28;19921;-81
2022/09/11 00:26:19;;;;;;;;;;;;;;;;;;5031880;28;19920;-80
2022/09/11 00:28:48;;;;;;;;;;;;;;;16.40;52.13;101231.94;4971307;28;20316;-81
2022/09/11 00:31:18;;;;;;;;;;;;;;;16.40;52.32;101231.06;4973682;28;19928;-81
2022/09/11 00:33:46;;;;;;;;;;;;;;;16.38;52.33;101228.47;4973053;28;20024;-81
2022/09/11 00:36:15;;;;;;;;;;;;;;;16.37;52.17;101229.47;4976884;28;19956;-82
2022/09/11 00:38:45;;;;;;;;;;;;;;;16.36;52.15;101229.63;4991897;28;20132;-82
2022/09/11 00:41:14;;;;;;;;;;;;;;;16.34;52.53;101229.78;4985098;28;20011;-82
2022/09/11 00:43:56;;;;;;;;;;;;;;;16.33;52.09;101227.22;4978413;28;20108;-83
2022/09/11 00:46:30;;;;;;;;;;;;;;;16.32;52.11;101228.25;4993039;28;19924;-83
2022/09/11 00:48:59;;;;;;;;;;;;;;;16.31;52.40;101229.28;5037787;28;19928;-81
2022/09/11 00:51:32;;;;;;;;;;;;;;;16.30;52.49;101233.94;5040611;28;19921;-82
2022/09/11 00:54:03;;;;;;;;;;;;;;;16.28;52.05;101235.97;5025633;28;19925;-82
2022/09/11 00:56:38;;;;;;;;;;;;;;;16.28;52.14;101241.50;5032484;28;20057;-80
2022/09/11 00:59:15;;;;;;;;;;;;;;;16.26;52.51;101261.00;5044959;28;19927;-81
2022/09/11 01:01:48;;;;;;;;;;;;;;;16.25;52.35;101259.25;5031209;28;19963;-82
2022/09/11 01:04:16;;;;;;;;;;;;;;;16.24;52.25;101265.84;5065606;22;19928;-69
2022/09/11 01:06:45;;;;;;;;;;;;;;;16.24;52.09;101260.31;5064150;28;20379;-68
2022/09/11 01:09:13;;;;;;;;;;;;;;;16.23;52.17;101257.72;5061816;28;19920;-68
2022/09/11 01:11:45;;;;;;;;;;;;;;;16.22;52.10;101262.34;5042051;28;20243;-68
2022/09/11 01:14:19;;;;;;;;;;;;;;;16.21;52.59;101260.63;5045281;28;20372;-69
2022/09/11 01:16:52;;;;;;;;;;;;;;;16.21;52.50;101265.28;5047937;28;19986;-68
2022/09/11 01:19:27;;;;;;;;;;;;;;;16.20;52.35;101258.88;5044449;28;20468;-68
2022/09/11 01:22:07;;;;;;;;;;;;;;;16.20;52.64;101266.31;5045586;28;19929;-68
2022/09/11 01:24:53;;;;;;;;;;;;;;;16.20;52.79;101267.16;5043491;28;19974;-68
2022/09/11 01:27:30;;;;;;;;;;;;;;;16.19;52.85;101262.66;5045690;28;20027;-69
2022/09/11 01:30:01;;;;;;;;;;;;;;;16.19;52.69;101262.66;5045309;28;19928;-68
2022/09/11 01:32:35;;;;;;;;;;;;;;;16.20;53.04;101266.31;5046634;28;20572;-69
2022/09/11 01:35:05;;;;;;;;;;;;;;;16.19;52.49;101273.72;5066229;28;19982;-69
2022/09/11 01:37:38;;;;;;;;;;;;;;;16.19;52.80;101273.72;5066469;28;19928;-69
2022/09/11 01:40:11;;;;;;;;;;;;;;;16.19;53.06;101278.38;5065099;28;19959;-68
2022/09/11 01:42:44;;;;;;;;;;;;;;;16.19;52.60;101282.00;5064570;28;19921;-69
2022/09/11 01:45:15;;;;;;;;;;;;;;;16.20;53.01;101282.88;5078584;28;20388;-69
2022/09/11 01:47:44;;;;;;;;;;;;;;;16.20;52.75;101288.41;5072532;28;19920;-68
2022/09/11 01:50:14;;;;;;;;;;;;;;;16.20;52.68;101282.88;5081480;28;19924;-69
2022/09/11 01:52:44;;;;;;;;;;;;;;;16.20;52.83;101286.50;5063580;28;20016;-68
2022/09/11 01:55:15;;;;;;;;;;;;;;;16.20;52.80;101292.03;5066759;28;19991;-68
2022/09/11 01:57:47;;;;;;;;;;;;;;;16.20;53.17;101294.78;5063549;28;20387;-68
2022/09/11 02:00:17;;;;;;;;;;;;;;;16.21;52.80;101293.75;5064486;28;20009;-69
2022/09/11 02:02:56;;;;;;;;;;;;;;;16.21;52.76;101293.75;5063313;28;19986;-69
2022/09/11 02:05:28;;;;;;;;;;;;;;;16.21;53.11;101288.25;5063933;28;20378;-68
2022/09/11 02:07:59;;;;;;;;;;;;;;;16.21;53.04;101291.00;5073384;28;19921;-68
2022/09/11 02:10:31;;;;;;;;;;;;;;;16.22;53.14;101297.41;5062562;28;20403;-69
2022/09/11 02:13:09;;;;;;;;;;;;;;;16.22;52.73;101297.41;5071637;28;19924;-68
2022/09/11 02:16:22;;;;;;;;;;;;;;;16.21;53.12;101302.06;5789043;22;19975;-84
2022/09/11 02:31:33;;;;;;;;;;;;;;;16.18;52.96;101307.00;5052123;22;20003;-82
2022/09/11 02:34:00;;;;;;;;;;;;;;;16.17;53.13;101302.50;5054856;28;20276;-82
2022/09/11 02:36:37;;;;;;;;;;;;;;;16.17;53.04;101299.75;5046077;28;19921;-82
2022/09/11 02:39:15;;;;;;;;;;;;;;;16.19;53.39;101306.84;5040308;28;19940;-82
2022/09/11 02:41:51;;;;;;;;;;;;;;;16.19;53.25;101304.09;5026686;28;20020;-82
2022/09/11 02:44:25;;;;;;;;;;;;;;;16.21;53.45;101306.69;4997380;28;19922;-82
2022/09/11 02:47:05;;;;;;;;;;;;;;;16.21;53.25;101301.19;5009078;28;19928;-82
2022/09/11 02:49:39;;;;;;;;;;;;;;;16.21;53.47;101303.94;5024632;28;20024;-82
2022/09/11 02:52:11;;;;;;;;;;;;;;;16.21;53.31;101307.56;5031656;28;19991;-82
2022/09/11 02:54:46;;;;;;;;;;;;;;;16.20;53.23;101305.84;5043762;28;19979;-82
2022/09/11 02:57:18;;;;;;;;;;;;;;;16.21;53.36;101310.34;5028386;28;19921;-82
2022/09/11 02:59:49;;;;;;;;;;;;;;;16.21;53.49;101313.09;5030872;28;19921;-82
2022/09/11 03:02:19;;;;;;;;;;;;;;;16.21;53.11;101315.00;5028769;28;19921;-82
2022/09/11 03:04:49;;;;;;;;;;;;;;;16.21;53.18;101320.50;5031337;28;19921;-82
2022/09/11 03:07:17;;;;;;;;;;;;;;;16.21;53.40;101317.75;5030093;28;19921;-82
2022/09/11 03:09:45;;;;;;;;;;;;;;;16.21;53.38;101320.50;5046874;28;19948;-82
2022/09/11 03:12:19;;;;;;;;;;;;;;;16.22;53.04;101325.00;5026990;28;19924;-83
2022/09/11 03:14:49;;;;;;;;;;;;;;;16.21;53.24;101326.91;5032254;28;20295;-82
2022/09/11 03:17:17;;;;;;;;;;;;;;;16.21;53.59;101323.28;5031084;28;19928;-82
2022/09/11 03:19:48;;;;;;;;;;;;;;;16.20;53.49;101325.16;5029386;28;19929;-82
2022/09/11 03:22:17;;;;;;;;;;;;;;;16.22;53.63;101323.13;5023689;28;20461;-82
2022/09/11 03:24:46;;;;;;;;;;;;;;;16.22;53.13;101325.88;5029746;28;20053;-82
2022/09/11 03:27:14;;;;;;;;;;;;;;;16.22;53.67;101328.66;5027700;28;20430;-82
2022/09/11 03:29:43;;;;;;;;;;;;;;;16.22;53.04;101331.41;5045719;28;19925;-82
2022/09/11 03:32:11;;;;;;;;;;;;;;;16.22;53.61;101328.66;5030474;28;19925;-82
2022/09/11 03:34:39;;;;;;;;;;;;;;;16.23;53.67;101329.50;5028233;28;19960;-82
2022/09/11 03:37:09;;;;;;;;;;;;;;;16.24;53.58;101336.78;5029142;28;20007;-82
2022/09/11 03:39:36;;;;;;;;;;;;;;;16.24;53.66;101336.78;5040110;28;20394;-82
2022/09/11 03:42:04;;;;;;;;;;;;;;;16.23;53.26;101335.91;5030390;28;20371;-82
2022/09/11 03:44:35;;;;;;;;;;;;;;;16.23;53.25;101335.91;5030836;28;19928;-82
2022/09/11 03:47:02;;;;;;;;;;;;;;;16.22;53.65;101339.69;5029888;28;20016;-82
2022/09/11 03:49:30;;;;;;;;;;;;;;;16.23;53.53;101341.44;5031251;28;20413;-82
2022/09/11 03:51:58;;;;;;;;;;;;;;;16.23;53.17;101338.66;5030624;28;19921;-82
2022/09/11 03:54:27;;;;;;;;;;;;;;;16.23;53.09;101335.03;5029596;28;19932;-82
2022/09/11 03:56:55;;;;;;;;;;;;;;;16.23;53.67;101337.78;5025752;28;19925;-82
2022/09/11 03:59:24;;;;;;;;;;;;;;;16.22;53.22;101339.69;5029808;28;19929;-82
2022/09/11 04:01:51;;;;;;;;;;;;;;;16.23;53.15;101349.72;5029348;28;20023;-82
2022/09/11 04:04:20;;;;;;;;;;;;;;;16.22;53.26;101339.69;5030020;28;19999;-82
2022/09/11 04:06:47;;;;;;;;;;;;;;;16.23;53.30;101340.56;5027055;28;19929;-83
2022/09/11 04:09:16;;;;;;;;;;;;;;;16.22;53.74;101339.69;5031482;28;19925;-82
2022/09/11 04:11:49;;;;;;;;;;;;;;;16.23;53.63;101348.84;5031495;28;19943;-82
2022/09/11 04:14:22;;;;;;;;;;;;;;;16.22;53.12;101347.97;5040498;28;19953;-83
2022/09/11 04:16:53;;;;;;;;;;;;;;;16.22;53.33;101349.88;5047955;28;19984;-82
2022/09/11 04:19:22;;;;;;;;;;;;;;;16.21;53.07;101353.66;5040595;28;20016;-82
2022/09/11 04:21:50;;;;;;;;;;;;;;;16.20;53.72;101352.78;5053120;28;19925;-82
2022/09/11 04:24:17;;;;;;;;;;;;;;;16.20;53.39;101354.69;5048991;28;19921;-83
2022/09/11 04:26:46;;;;;;;;;;;;;;;16.19;53.42;101358.47;5058490;28;19921;-83
2022/09/11 04:29:21;;;;;;;;;;;;;;;16.19;53.30;101362.09;5052188;28;19921;-83
2022/09/11 04:31:50;;;;;;;;;;;;;;;16.18;53.26;101362.25;5052812;28;19959;-82
2022/09/11 04:34:17;;;;;;;;;;;;;;;16.17;53.68;101358.63;5050256;28;19936;-82
2022/09/11 04:36:45;;;;;;;;;;;;;;;16.17;53.38;101360.50;5048368;28;19936;-82
2022/09/11 04:39:18;;;;;;;;;;;;;;;16.16;53.02;101356.88;5032927;28;19921;-83
2022/09/11 04:41:47;;;;;;;;;;;;;;;16.16;53.14;101367.03;5057189;28;19981;-82
2022/09/11 04:44:16;;;;;;;;;;;;;;;16.15;53.13;101366.19;5030811;28;19925;-82
2022/09/11 04:46:45;;;;;;;;;;;;;;;16.15;53.47;101371.69;5037878;28;19921;-82
2022/09/11 04:49:13;;;;;;;;;;;;;;;16.15;53.63;101379.13;5038108;28;19921;-83
2022/09/11 04:51:41;;;;;;;;;;;;;;;16.15;53.08;101379.13;5030222;28;20381;-82
2022/09/11 04:54:13;;;;;;;;;;;;;;;16.14;53.68;101369.97;5037136;28;20390;-83
2022/09/11 04:56:41;;;;;;;;;;;;;;;16.14;53.35;101374.63;5036278;28;20282;-83
2022/09/11 04:59:12;;;;;;;;;;;;;;;16.13;53.13;101372.88;5035143;28;19925;-82
2022/09/11 05:01:42;;;;;;;;;;;;;;;16.13;53.67;101378.41;5032841;28;19922;-82
2022/09/11 05:04:12;;;;;;;;;;;;;;;16.10;53.56;101371.28;5047687;28;19944;-82
2022/09/11 05:06:41;;;;;;;;;;;;;;;16.10;53.50;101376.81;5035100;28;19921;-83
2022/09/11 05:09:12;;;;;;;;;;;;;;;16.10;53.09;101381.47;5032247;28;20376;-82
2022/09/11 05:11:40;;;;;;;;;;;;;;;16.10;53.20;101375.94;5034365;28;19968;-83
2022/09/11 05:14:10;;;;;;;;;;;;;;;16.10;53.33;101378.69;5036874;28;19976;-83
2022/09/11 05:16:40;;;;;;;;;;;;;;;16.08;53.26;101387.16;5036637;28;19971;-82
2022/09/11 05:19:09;;;;;;;;;;;;;;;16.08;53.72;101391.81;5037415;28;19921;-82
2022/09/11 05:21:40;;;;;;;;;;;;;;;16.08;53.93;101394.59;5034250;28;19925;-81
2022/09/11 05:24:08;;;;;;;;;;;;;;;16.07;53.83;101395.59;5034710;28;19921;-80
2022/09/11 05:26:37;;;;;;;;;;;;;;;16.08;53.27;101397.34;5032805;28;19929;-83
2022/09/11 05:29:07;;;;;;;;;;;;;;;16.06;53.87;101405.78;5034908;28;19932;-82
2022/09/11 05:31:41;;;;;;;;;;;;;;;16.06;53.40;101403.03;5034194;28;19925;-82
2022/09/11 05:34:11;;;;;;;;;;;;;;;16.06;53.70;101408.53;5035480;28;19983;-82
2022/09/11 05:36:40;;;;;;;;;;;;;;;16.06;53.72;101408.53;5032777;28;19925;-83
2022/09/11 05:39:09;;;;;;;;;;;;;;;16.06;53.54;101416.81;5033119;28;20288;-83
2022/09/11 05:41:39;;;;;;;;;;;;;;;16.05;53.68;101409.56;5044449;28;19929;-82
2022/09/11 05:44:07;;;;;;;;;;;;;;;16.06;53.71;101416.81;5033676;28;19928;-83
2022/09/11 05:46:37;;;;;;;;;;;;;;;16.06;53.60;101414.06;5032000;28;20326;-83
2022/09/11 05:49:06;;;;;;;;;;;;;;;16.06;53.61;101425.09;5033011;28;19925;-83
2022/09/11 05:51:36;;;;;;;;;;;;;;;16.06;53.72;101424.25;5028211;28;19928;-80
2022/09/11 05:54:07;;;;;;;;;;;;;;;16.07;53.49;101435.13;5032802;28;19937;-82
2022/09/11 05:56:35;;;;;;;;;;;;;;;16.06;53.78;101435.28;5038732;28;20454;-82
2022/09/11 05:59:13;;;;;;;;;;;;;;;16.08;53.30;101441.53;5033096;28;19976;-82
2022/09/11 06:01:41;;;;;;;;;;;;;;;16.07;53.92;101443.41;5029218;28;19949;-82
2022/09/11 06:04:19;;;;;;;;;;;;;;;16.07;53.50;101439.78;5030537;28;19968;-84
2022/09/11 06:06:50;;;;;;;;;;;;;;;16.08;53.82;101456.19;5025935;28;19929;-84
2022/09/11 06:09:20;;;;;;;;;;;;;;;16.08;53.65;101449.81;5030596;28;19920;-84
2022/09/11 06:11:48;;;;;;;;;;;;;;;16.08;53.42;101449.81;5032108;28;19932;-83
2022/09/11 06:14:16;;;;;;;;;;;;;;;16.08;53.41;101453.44;5032647;28;19975;-83
2022/09/11 06:16:44;;;;;;;;;;;;;;;16.09;53.46;101455.16;5029410;28;19925;-83
2022/09/11 06:19:15;;;;;;;;;;;;;;;16.09;53.46;101457.03;5032865;28;19943;-83
2022/09/11 06:21:44;;;;;;;;;;;;;;;16.10;53.78;101459.66;5032179;28;19975;-82
2022/09/11 06:24:30;;;;;;;;;;;;;;;16.10;53.89;101456.03;5033582;28;19921;-83
2022/09/11 06:26:58;;;;;;;;;;;;;;;16.10;53.78;101456.88;5035203;28;19967;-83
2022/09/11 06:29:27;;;;;;;;;;;;;;;16.11;53.47;101460.53;5030382;28;19921;-82
2022/09/11 06:31:55;;;;;;;;;;;;;;;16.10;53.88;101456.88;5030072;28;19925;-82
2022/09/11 06:34:27;;;;;;;;;;;;;;;16.10;53.84;101467.94;5028316;28;20453;-82
2022/09/11 06:36:57;;;;;;;;;;;;;;;16.11;53.96;101464.16;5037851;28;19921;-82
2022/09/11 06:39:26;;;;;;;;;;;;;;;16.12;53.84;101468.66;5025651;28;19932;-82
2022/09/11 06:41:56;;;;;;;;;;;;;;;16.12;53.99;101465.03;5030829;28;20000;-82
2022/09/11 06:44:30;;;;;;;;;;;;;;;16.12;53.89;101463.13;5025571;28;19921;-83
2022/09/11 06:47:00;;;;;;;;;;;;;;;16.12;53.38;101459.50;5027832;28;19921;-83
2022/09/11 06:49:27;;;;;;;;;;;;;;;16.11;53.50;101461.38;5044828;28;19921;-82
2022/09/11 06:52:26;;;;;;;;;;;;;;;16.12;53.84;101474.19;5029923;28;19996;-82
2022/09/11 06:55:12;;;;;;;;;;;;;;;16.13;53.63;101483.34;5028476;28;19921;-83
2022/09/11 06:57:46;;;;;;;;;;;;;;;16.12;54.01;101476.94;5027996;28;19927;-83
2022/09/11 07:00:17;;;;;;;;;;;;;;;16.12;54.02;101476.94;5031015;28;20345;-83
2022/09/11 07:02:45;;;;;;;;;;;;;;;16.14;53.54;101487.84;5027434;28;19921;-83
2022/09/11 07:05:13;;;;;;;;;;;;;;;16.13;53.92;101497.13;5030461;28;20639;-83
2022/09/11 07:07:47;;;;;;;;;;;;;;;16.13;53.99;101499.91;5042539;28;19931;-82
2022/09/11 07:10:15;;;;;;;;;;;;;;;16.12;53.43;101493.50;5030237;28;19963;-83
2022/09/11 07:12:43;;;;;;;;;;;;;;;16.13;53.42;101491.63;5042282;28;20441;-83
2022/09/11 07:15:12;;;;;;;;;;;;;;;16.13;53.54;101486.97;5021925;28;19922;-83
2022/09/11 07:17:40;;;;;;;;;;;;;;;16.12;53.74;101487.13;5027105;28;20015;-83
2022/09/11 07:20:10;;;;;;;;;;;;;;;16.12;53.71;101490.75;5029342;28;19964;-84
2022/09/11 07:22:39;;;;;;;;;;;;;;;16.11;53.70;101485.38;5038386;28;20495;-83
2022/09/11 07:25:07;;;;;;;;;;;;;;;16.12;53.80;101489.88;5047179;28;19976;-84
2022/09/11 07:27:38;;;;;;;;;;;;;;;16.11;53.94;101493.66;5036329;28;19925;-83
2022/09/11 07:30:07;;;;;;;;;;;;;;;16.11;53.88;101490.91;5025802;28;20676;-83
2022/09/11 07:32:39;;;;;;;;;;;;;;;16.11;53.81;101494.53;5024667;28;19928;-83
2022/09/11 07:35:07;;;;;;;;;;;;;;;16.10;53.37;101498.31;5039810;28;20245;-83
2022/09/11 07:37:34;;;;;;;;;;;;;;;16.10;53.49;101498.31;5027926;28;19956;-83
2022/09/11 07:40:03;;;;;;;;;;;;;;;16.08;53.83;101505.91;5029902;28;19921;-83
2022/09/11 07:42:32;;;;;;;;;;;;;;;16.07;53.47;101501.41;5026598;28;20370;-83
2022/09/11 07:45:00;;;;;;;;;;;;;;;16.08;53.42;101507.78;5038422;28;19929;-83
2022/09/11 07:47:32;;;;;;;;;;;;;;;16.07;53.74;101514.34;5038863;28;19929;-83
2022/09/11 07:50:03;;;;;;;;;;;;;;;16.06;53.55;101502.41;5032124;28;19967;-84
2022/09/11 07:52:31;;;;;;;;;;;;;;;16.07;53.43;101508.81;5033197;28;19978;-83
2022/09/11 07:55:02;;;;;;;;;;;;;;;16.06;53.80;101516.22;5027725;28;20571;-83
2022/09/11 07:57:33;;;;;;;;;;;;;;;16.06;53.59;101515.34;5028469;28;20441;-84
2022/09/11 08:00:05;;;;;;;;;;;;;;;16.06;53.66;101521.75;5032094;28;20299;-83
2022/09/11 08:02:46;;;;;;;;;;;;;;;16.06;53.69;101507.06;5034925;28;19928;-83
2022/09/11 08:05:19;;;;;;;;;;;;;;;16.06;53.54;101516.22;5032631;28;19944;-83
2022/09/11 08:07:47;;;;;;;;;;;;;;;16.06;53.90;101510.69;5020045;28;19932;-84
2022/09/11 08:10:16;;;;;;;;;;;;;;;16.06;53.84;101521.75;5034316;28;19940;-83
2022/09/11 08:12:55;;;;;;;;;;;;;;;16.06;53.71;101526.41;5030199;28;19940;-83
2022/09/11 08:15:30;;;;;;;;;;;;;;;16.05;54.02;101527.41;5032982;28;19951;-83
2022/09/11 08:17:59;;;;;;;;;;;;;;;16.06;53.46;101540.19;5033656;28;19928;-83
2022/09/11 08:20:32;;;;;;;;;;;;;;;16.06;53.52;101546.59;5032822;28;20375;-83
2022/09/11 08:23:00;;;;;;;;;;;;;;;16.06;54.03;101548.50;5032672;28;19947;-83
2022/09/11 08:25:28;;;;;;;;;;;;;;;16.05;53.63;101547.63;5025851;28;19925;-83
2022/09/11 08:27:58;;;;;;;;;;;;;;;16.05;53.53;101547.63;5021983;28;19921;-83
2022/09/11 08:30:26;;;;;;;;;;;;;;;16.06;53.56;101557.63;5032505;28;19928;-83
2022/09/11 08:32:54;;;;;;;;;;;;;;;16.05;53.79;101553.13;5032973;28;19921;-83
2022/09/11 08:35:22;;;;;;;;;;;;;;;16.07;53.79;101561.28;5033286;28;19921;-83
2022/09/11 08:37:53;;;;;;;;;;;;;;;16.06;53.95;101554.00;5033452;28;20008;-83
2022/09/11 08:40:21;;;;;;;;;;;;;;;16.06;53.60;101567.81;5025219;28;19922;-83
2022/09/11 08:42:51;;;;;;;;;;;;;;;16.06;53.92;101560.41;5025826;28;20358;-83
2022/09/11 08:45:20;;;;;;;;;;;;;;;16.06;53.61;101568.69;5044792;28;20375;-83
2022/09/11 08:47:50;;;;;;;;;;;;;;;16.05;54.04;101569.72;5031186;28;19955;-83
2022/09/11 08:50:20;;;;;;;;;;;;;;;16.05;54.01;101575.22;5031517;28;20315;-83
2022/09/11 08:52:49;;;;;;;;;;;;;;;16.06;53.65;101579.72;5031647;28;19944;-83
2022/09/11 08:55:28;;;;;;;;;;;;;;;16.06;53.59;101581.63;5032101;28;19921;-83
2022/09/11 08:58:02;;;;;;;;;;;;;;;16.06;54.00;101576.09;5044191;28;19921;-83
2022/09/11 09:00:32;;;;;;;;;;;;;;;16.05;54.08;101575.22;5031134;28;20028;-83
2022/09/11 09:03:12;;;;;;;;;;;;;;;16.06;53.98;101578.84;5030980;28;20300;-84
2022/09/11 09:05:45;;;;;;;;;;;;;;;16.05;53.67;101583.50;5037249;28;19921;-85
2022/09/11 09:08:24;;;;;;;;;;;;;;;16.06;53.52;101587.16;5038850;28;19943;-84
2022/09/11 09:10:58;;;;;;;;;;;;;;;16.07;53.91;101588.88;5021478;28;19925;-84
2022/09/11 09:13:33;;;;;;;;;;;;;;;16.06;54.24;101589.91;5032007;28;19959;-84
2022/09/11 09:16:08;;;;;;;;;;;;;;;16.05;53.81;101589.03;5021550;28;19925;-85
2022/09/11 09:18:38;;;;;;;;;;;;;;;16.06;54.25;101595.44;5021317;28;19924;-85
2022/09/11 09:21:11;;;;;;;;;;;;;;;16.07;54.28;101594.41;5028426;28;19921;-84
2022/09/11 09:23:41;;;;;;;;;;;;;;;16.06;54.20;101593.53;5020732;28;19956;-85
2022/09/11 09:26:16;;;;;;;;;;;;;;;16.07;54.24;101600.81;5028190;28;19963;-85
2022/09/11 09:28:46;;;;;;;;;;;;;;;16.08;54.41;101602.53;5028513;28;20025;-85
2022/09/11 09:31:17;;;;;;;;;;;;;;;16.10;53.92;101596.84;5028580;28;19936;-84
2022/09/11 09:33:49;;;;;;;;;;;;;;;16.11;54.01;101598.59;5028668;28;19921;-85
2022/09/11 09:36:19;;;;;;;;;;;;;;;16.11;54.22;101602.22;5028042;28;20012;-85
2022/09/11 09:38:48;;;;;;;;;;;;;;;16.12;54.47;101605.84;5030958;28;19971;-83
2022/09/11 09:41:38;;;;;;;;;;;;;;;16.12;54.10;101606.72;5031374;28;20555;-83
2022/09/11 09:44:12;;;;;;;;;;;;;;;16.13;53.95;101602.94;5027561;28;20410;-83
2022/09/11 09:46:47;;;;;;;;;;;;;;;16.15;53.90;101611.97;5041620;28;20675;-83
2022/09/11 09:49:22;;;;;;;;;;;;;;;16.14;53.95;101604.69;5044545;28;20435;-80
2022/09/11 09:51:50;;;;;;;;;;;;;;;16.15;54.46;101614.72;5031734;28;19932;-82
2022/09/11 09:54:22;;;;;;;;;;;;;;;16.16;54.42;101616.47;5027962;28;19924;-82
2022/09/11 09:56:56;;;;;;;;;;;;;;;16.19;53.91;101612.53;5047699;28;19948;-82
2022/09/11 09:59:27;;;;;;;;;;;;;;;16.20;53.98;101612.38;5046019;28;19984;-83
2022/09/11 10:01:55;;;;;;;;;;;;;;;16.23;54.56;101613.97;5047733;28;19921;-82
2022/09/11 10:04:24;;;;;;;;;;;;;;;16.24;54.15;101597.25;5041055;28;19929;-82
2022/09/11 10:06:54;;;;;;;;;;;;;;;16.27;54.66;101602.47;5046323;28;20043;-83
2022/09/11 10:09:23;;;;;;;;;;;;;;;16.33;54.42;101597.38;5039450;28;20308;-83
2022/09/11 10:11:54;;;;;;;;;;;;;;;16.35;54.34;101593.41;5035520;28;19974;-85
2022/09/11 10:14:23;;;;;;;;;;;;;;;16.38;54.67;101592.22;5031776;28;19975;-85
2022/09/11 10:17:19;;;;;;;;;;;;;;;16.44;54.15;101597.13;5030133;28;19979;-84
2022/09/11 10:19:47;;;;;;;;;;;;;;;16.47;54.57;101603.22;5031113;28;19990;-84
2022/09/11 10:22:21;;;;;;;;;;;;;;;16.52;54.51;101613.81;5026193;28;19932;-85
2022/09/11 10:24:52;;;;;;;;;;;;;;;16.56;54.43;101602.31;5027103;28;19960;-85
2022/09/11 10:27:21;;;;;;;;;;;;;;;16.60;54.33;101600.09;5031994;28;19968;-84
2022/09/11 10:29:53;;;;;;;;;;;;;;;16.64;54.68;101602.41;5033875;28;20303;-84
2022/09/11 10:32:23;;;;;;;;;;;;;;;16.69;54.56;101601.03;5030848;28;19964;-84
2022/09/11 10:34:52;;;;;;;;;;;;;;;16.73;54.18;101606.13;5031706;28;19931;-84
2022/09/11 10:37:24;;;;;;;;;;;;;;;16.79;54.48;101601.84;5032162;28;19924;-85
2022/09/11 10:39:52;;;;;;;;;;;;;;;16.83;54.12;101609.66;5032586;28;19927;-84
2022/09/11 10:42:24;;;;;;;;;;;;;;;16.87;54.21;101608.31;5030454;28;19921;-84
2022/09/11 10:44:52;;;;;;;;;;;;;;;16.92;54.29;101608.72;5032589;28;19921;-83
2022/09/11 10:47:23;;;;;;;;;;;;;;;16.96;54.21;101603.75;5031187;28;19921;-84
2022/09/11 10:50:10;;;;;;;;;;;;;;;17.00;54.54;101608.81;5031588;28;19924;-84
2022/09/11 10:52:47;;;;;;;;;;;;;;;17.06;53.89;101604.56;5027624;28;19921;-84
2022/09/11 10:55:17;;;;;;;;;;;;;;;17.11;53.88;101606.84;5034001;28;20306;-84
2022/09/11 10:57:50;;;;;;;;;;;;;;;17.15;54.22;101606.38;5021121;28;19921;-83
2022/09/11 11:00:23;;;;;;;;;;;;;;;17.19;54.31;101609.69;5045770;28;19921;-83
2022/09/11 11:02:53;;;;;;;;;;;;;;;17.21;53.92;101611.28;5028517;28;20302;-83
2022/09/11 11:05:23;;;;;;;;;;;;;;;17.25;53.69;101603.50;5033094;28;19921;-83
2022/09/11 11:07:59;;;;;;;;;;;;;;;17.28;54.14;101604.06;5042708;28;19929;-83
2022/09/11 11:10:34;;;;;;;;;;;;;;;17.31;53.51;101608.44;5032453;28;19921;-83
2022/09/11 11:13:13;;;;;;;;;;;;;;;17.34;53.50;101603.41;5029758;28;19921;-84
2022/09/11 11:15:49;;;;;;;;;;;;;;;17.37;53.97;101602.25;5030603;28;19921;-82
2022/09/11 11:18:26;;;;;;;;;;;;;;;17.41;54.11;101606.41;5031986;28;19952;-81
2022/09/11 11:21:01;;;;;;;;;;;;;;;17.44;53.67;101608.84;5031944;28;19921;-81
2022/09/11 11:23:44;;;;;;;;;;;;;;;17.48;53.63;101607.53;5038340;28;19921;-82
2022/09/11 11:26:22;;;;;;;;;;;;;;;17.52;53.42;101603.38;5032218;28;20372;-81
2022/09/11 11:29:02;;;;;;;;;;;;;;;17.54;53.34;101606.88;5034491;28;19921;-83
2022/09/11 11:31:38;;;;;;;;;;;;;;;17.58;53.56;101597.19;5037463;28;19921;-82
2022/09/11 11:34:20;;;;;;;;;;;;;;;17.61;53.50;101605.19;5035098;28;19920;-82
2022/09/11 11:36:51;;;;;;;;;;;;;;;17.65;53.56;101602.94;5035699;28;19931;-82
2022/09/11 11:39:22;;;;;;;;;;;;;;;17.69;53.43;101599.72;5035318;28;20004;-82
2022/09/11 11:41:54;;;;;;;;;;;;;;;17.73;53.98;101592.78;5065051;28;19930;-82
2022/09/11 11:44:28;;;;;;;;;;;;;;;17.79;53.38;101601.53;5033187;28;19948;-82
2022/09/11 11:46:58;;;;;;;;;;;;;;;17.84;53.27;101604.66;5025518;28;20285;-82
2022/09/11 11:49:28;;;;;;;;;;;;;;;17.88;53.31;101606.97;5031644;28;19971;-85
2022/09/11 11:52:02;;;;;;;;;;;;;;;17.93;53.35;101607.31;5034730;28;19928;-81
2022/09/11 11:54:32;;;;;;;;;;;;;;;17.98;53.67;101601.28;5023131;28;20510;-83
2022/09/11 11:57:06;;;;;;;;;;;;;;;18.01;53.65;101599.06;5014126;28;19987;-83
2022/09/11 11:59:40;;;;;;;;;;;;;;;18.06;53.57;101604.13;5027481;28;19921;-84
2022/09/11 12:02:14;;;;;;;;;;;;;;;18.09;53.28;101598.22;5029081;28;19921;-84
2022/09/11 12:04:47;;;;;;;;;;;;;;;18.12;53.14;101600.69;5032403;28;19968;-83
2022/09/11 12:07:17;;;;;;;;;;;;;;;18.15;52.73;101600.31;5032219;28;19932;-83
2022/09/11 12:09:49;;;;;;;;;;;;;;;18.20;53.18;101599.84;5033015;28;19925;-82
2022/09/11 12:12:18;;;;;;;;;;;;;;;18.24;52.97;101598.47;5032141;28;20281;-83
2022/09/11 12:14:53;;;;;;;;;;;;;;;18.28;53.44;101602.66;5033530;28;20071;-83
2022/09/11 12:17:25;;;;;;;;;;;;;;;18.34;53.34;101594.53;5033262;28;19925;-83
2022/09/11 12:20:13;;;;;;;;;;;;;;;18.41;53.43;101605.81;5023903;28;19921;-83
2022/09/11 12:22:42;;;;;;;;;;;;;;;18.48;53.29;101599.44;5036526;28;20334;-84
2022/09/11 12:25:24;;;;;;;;;;;;;;;18.55;53.40;101605.22;5034154;28;20358;-83
2022/09/11 12:27:54;;;;;;;;;;;;;;;18.63;53.19;101605.25;5023856;28;19965;-84
2022/09/11 12:30:26;;;;;;;;;;;;;;;18.70;53.42;101597.97;5032045;28;19925;-83
2022/09/11 12:32:55;;;;;;;;;;;;;;;18.78;52.94;101597.13;5030912;28;19925;-83
2022/09/11 12:35:26;;;;;;;;;;;;;;;18.85;53.24;101598.16;5031917;28;20407;-82
2022/09/11 12:37:57;;;;;;;;;;;;;;;18.91;53.19;101591.94;5032548;28;20012;-86
2022/09/11 12:40:32;;;;;;;;;;;;;;;18.97;52.93;101585.69;5033657;28;19987;-84
2022/09/11 12:43:16;;;;;;;;;;;;;;;19.06;52.66;101586.56;5034892;28;19959;-84
2022/09/11 12:45:47;;;;;;;;;;;;;;;19.12;52.71;101588.66;5033263;28;20019;-83
2022/09/11 12:48:16;;;;;;;;;;;;;;;19.18;52.42;101591.63;5025505;28;20259;-83
2022/09/11 12:50:52;;;;;;;;;;;;;;;19.23;52.01;101586.44;5032070;28;19928;-83
2022/09/11 12:53:23;;;;;;;;;;;;;;;19.30;52.00;101583.81;5028156;28;19921;-83
2022/09/11 12:55:54;;;;;;;;;;;;;;;19.35;51.67;101586.97;5029426;28;19924;-83
2022/09/11 12:58:27;;;;;;;;;;;;;;;19.40;51.73;101578.97;5032060;28;19928;-84
2022/09/11 13:01:03;;;;;;;;;;;;;;;19.45;51.64;101581.22;5031255;28;19947;-83
2022/09/11 13:03:31;;;;;;;;;;;;;;;19.48;51.35;101572.53;5030881;28;20283;-82
2022/09/11 13:06:01;;;;;;;;;;;;;;;19.52;52.00;101577.56;5031792;28;19925;-81
2022/09/11 13:08:32;;;;;;;;;;;;;;;19.56;51.83;101561.41;5052890;28;19928;-82
2022/09/11 13:11:19;;;;;;;;;;;;;;;19.60;51.63;101558.13;5031907;28;19921;-82
2022/09/11 13:13:48;;;;;;;;;;;;;;;19.65;50.92;101552.03;5031734;28;19921;-82